Terminal Aerodrome Forecast
Issued by NWS

Home | Current Version | Previous Version | Text Only | Print | Product List | Glossary On
Versions: 1 2 3 4 5 6 7 8 9 10 11 12
000
FTAK31 PAJN 071700
TAFAWG
TAF
PAWG 071723Z 0718/0818 30007KT P6SM FEW100 SCT200
     FM080400 VRB04KT P6SM SCT100 BKN200
     FM081500 32007KT P6SM BKN150
      AMD LTD TO CLD VIS AND WIND 0806/0815=

USA.gov is the U.S. government's official web portal to all federal, state and local government web resources and services.